sensor_id;sensor_type;location;lat;lon;timestamp;temperature;humidity
38514;DHT22;24282;48.400;10.808;2024-03-29T00:00:55;4.10;81.40
38514;DHT22;24282;48.400;10.808;2024-03-29T00:03:21;4.10;81.40
38514;DHT22;24282;48.400;10.808;2024-03-29T00:05:47;4.10;81.40
38514;DHT22;24282;48.400;10.808;2024-03-29T00:08:12;4.10;81.40
38514;DHT22;24282;48.400;10.808;2024-03-29T00:10:38;4.00;81.40
38514;DHT22;24282;48.400;10.808;2024-03-29T00:13:04;4.10;81.30
38514;DHT22;24282;48.400;10.808;2024-03-29T00:15:32;4.10;81.00
38514;DHT22;24282;48.400;10.808;2024-03-29T00:17:57;4.10;81.20
38514;DHT22;24282;48.400;10.808;2024-03-29T00:20:23;4.10;81.20
38514;DHT22;24282;48.400;10.808;2024-03-29T00:22:49;4.10;81.40
38514;DHT22;24282;48.400;10.808;2024-03-29T00:25:15;4.10;81.30
38514;DHT22;24282;48.400;10.808;2024-03-29T00:27:40;4.10;81.10
38514;DHT22;24282;48.400;10.808;2024-03-29T00:30:07;4.10;81.20
38514;DHT22;24282;48.400;10.808;2024-03-29T00:32:32;4.00;81.20
38514;DHT22;24282;48.400;10.808;2024-03-29T00:34:58;4.00;81.10
38514;DHT22;24282;48.400;10.808;2024-03-29T00:37:24;4.00;81.20
38514;DHT22;24282;48.400;10.808;2024-03-29T00:39:50;4.00;81.20
38514;DHT22;24282;48.400;10.808;2024-03-29T00:42:16;4.00;81.50
38514;DHT22;24282;48.400;10.808;2024-03-29T00:44:42;4.00;81.70
38514;DHT22;24282;48.400;10.808;2024-03-29T00:47:08;4.00;81.60
38514;DHT22;24282;48.400;10.808;2024-03-29T00:49:34;4.00;81.60
38514;DHT22;24282;48.400;10.808;2024-03-29T00:52:01;4.00;81.50
38514;DHT22;24282;48.400;10.808;2024-03-29T00:54:27;4.00;81.20
38514;DHT22;24282;48.400;10.808;2024-03-29T00:56:52;4.10;81.30
38514;DHT22;24282;48.400;10.808;2024-03-29T00:59:18;4.00;81.30
38514;DHT22;24282;48.400;10.808;2024-03-29T01:01:45;4.00;81.30
38514;DHT22;24282;48.400;10.808;2024-03-29T01:04:11;4.00;81.10
38514;DHT22;24282;48.400;10.808;2024-03-29T01:06:40;4.10;80.80
38514;DHT22;24282;48.400;10.808;2024-03-29T01:09:06;4.10;80.50
38514;DHT22;24282;48.400;10.808;2024-03-29T01:11:32;4.10;80.50
38514;DHT22;24282;48.400;10.808;2024-03-29T01:13:58;4.00;80.60
38514;DHT22;24282;48.400;10.808;2024-03-29T01:16:24;4.10;80.40
38514;DHT22;24282;48.400;10.808;2024-03-29T01:18:50;4.10;80.30
38514;DHT22;24282;48.400;10.808;2024-03-29T01:21:17;4.00;80.20
38514;DHT22;24282;48.400;10.808;2024-03-29T01:23:44;4.10;79.80
38514;DHT22;24282;48.400;10.808;2024-03-29T01:26:09;4.10;79.80
38514;DHT22;24282;48.400;10.808;2024-03-29T01:28:38;4.10;79.60
38514;DHT22;24282;48.400;10.808;2024-03-29T01:31:04;4.10;79.10
38514;DHT22;24282;48.400;10.808;2024-03-29T01:33:30;4.20;78.70
38514;DHT22;24282;48.400;10.808;2024-03-29T01:35:58;4.10;79.00
38514;DHT22;24282;48.400;10.808;2024-03-29T01:38:24;4.10;79.40
38514;DHT22;24282;48.400;10.808;2024-03-29T01:40:50;4.20;79.70
38514;DHT22;24282;48.400;10.808;2024-03-29T01:43:16;4.20;79.20
38514;DHT22;24282;48.400;10.808;2024-03-29T01:45:47;4.10;79.10
38514;DHT22;24282;48.400;10.808;2024-03-29T01:48:13;4.20;78.90
38514;DHT22;24282;48.400;10.808;2024-03-29T01:50:39;4.20;78.60
38514;DHT22;24282;48.400;10.808;2024-03-29T01:53:07;4.10;78.90
38514;DHT22;24282;48.400;10.808;2024-03-29T01:55:37;4.10;79.30
38514;DHT22;24282;48.400;10.808;2024-03-29T01:58:03;4.10;79.40
38514;DHT22;24282;48.400;10.808;2024-03-29T02:00:30;4.10;79.00
38514;DHT22;24282;48.400;10.808;2024-03-29T02:03:00;4.10;79.00
38514;DHT22;24282;48.400;10.808;2024-03-29T02:05:26;4.00;79.30
38514;DHT22;24282;48.400;10.808;2024-03-29T02:07:54;4.00;79.20
38514;DHT22;24282;48.400;10.808;2024-03-29T02:10:20;4.00;79.40
38514;DHT22;24282;48.400;10.808;2024-03-29T02:12:46;4.00;79.40
38514;DHT22;24282;48.400;10.808;2024-03-29T02:15:15;4.00;79.50
38514;DHT22;24282;48.400;10.808;2024-03-29T02:17:44;4.00;79.50
38514;DHT22;24282;48.400;10.808;2024-03-29T02:20:10;4.00;79.40
38514;DHT22;24282;48.400;10.808;2024-03-29T02:22:41;3.90;79.50
38514;DHT22;24282;48.400;10.808;2024-03-29T02:25:11;3.90;79.30
38514;DHT22;24282;48.400;10.808;2024-03-29T02:27:38;3.90;79.80
38514;DHT22;24282;48.400;10.808;2024-03-29T02:30:04;3.90;79.70
38514;DHT22;24282;48.400;10.808;2024-03-29T02:32:30;3.90;79.70
38514;DHT22;24282;48.400;10.808;2024-03-29T02:34:55;3.90;79.40
38514;DHT22;24282;48.400;10.808;2024-03-29T02:37:21;3.90;79.60
38514;DHT22;24282;48.400;10.808;2024-03-29T02:39:47;3.90;79.60
38514;DHT22;24282;48.400;10.808;2024-03-29T02:42:13;3.90;79.60
38514;DHT22;24282;48.400;10.808;2024-03-29T02:44:38;4.00;79.80
38514;DHT22;24282;48.400;10.808;2024-03-29T02:47:04;4.00;79.90
38514;DHT22;24282;48.400;10.808;2024-03-29T02:49:30;4.00;79.80
38514;DHT22;24282;48.400;10.808;2024-03-29T02:51:55;4.10;79.50
38514;DHT22;24282;48.400;10.808;2024-03-29T02:54:22;4.10;79.90
38514;DHT22;24282;48.400;10.808;2024-03-29T02:56:48;4.10;79.20
38514;DHT22;24282;48.400;10.808;2024-03-29T02:59:13;4.10;79.20
38514;DHT22;24282;48.400;10.808;2024-03-29T03:01:40;4.10;79.60
38514;DHT22;24282;48.400;10.808;2024-03-29T03:04:06;4.10;79.50
38514;DHT22;24282;48.400;10.808;2024-03-29T03:06:31;4.10;79.50
38514;DHT22;24282;48.400;10.808;2024-03-29T03:08:57;4.10;79.40
38514;DHT22;24282;48.400;10.808;2024-03-29T03:11:41;4.10;79.60
38514;DHT22;24282;48.400;10.808;2024-03-29T03:14:07;4.10;79.50
38514;DHT22;24282;48.400;10.808;2024-03-29T03:16:33;4.10;79.40
38514;DHT22;24282;48.400;10.808;2024-03-29T03:18:58;4.10;79.40
38514;DHT22;24282;48.400;10.808;2024-03-29T03:21:25;4.10;79.50
38514;DHT22;24282;48.400;10.808;2024-03-29T03:23:52;4.10;79.10
38514;DHT22;24282;48.400;10.808;2024-03-29T03:26:17;4.00;79.40
38514;DHT22;24282;48.400;10.808;2024-03-29T03:28:43;4.00;79.60
38514;DHT22;24282;48.400;10.808;2024-03-29T03:31:09;4.00;79.50
38514;DHT22;24282;48.400;10.808;2024-03-29T03:33:34;4.00;79.50
38514;DHT22;24282;48.400;10.808;2024-03-29T03:36:00;4.00;79.40
38514;DHT22;24282;48.400;10.808;2024-03-29T03:38:26;4.00;79.70
38514;DHT22;24282;48.400;10.808;2024-03-29T03:40:51;3.90;79.80
38514;DHT22;24282;48.400;10.808;2024-03-29T03:43:17;3.90;79.60
38514;DHT22;24282;48.400;10.808;2024-03-29T03:45:43;3.90;79.70
38514;DHT22;24282;48.400;10.808;2024-03-29T03:48:10;3.90;79.20
38514;DHT22;24282;48.400;10.808;2024-03-29T03:50:37;4.00;78.70
38514;DHT22;24282;48.400;10.808;2024-03-29T03:53:03;4.00;79.20
38514;DHT22;24282;48.400;10.808;2024-03-29T03:55:29;4.00;79.50
38514;DHT22;24282;48.400;10.808;2024-03-29T03:57:55;4.00;79.60
38514;DHT22;24282;48.400;10.808;2024-03-29T04:00:22;4.00;79.70
38514;DHT22;24282;48.400;10.808;2024-03-29T04:02:49;3.90;79.80
38514;DHT22;24282;48.400;10.808;2024-03-29T04:05:19;3.90;79.70
38514;DHT22;24282;48.400;10.808;2024-03-29T04:07:46;3.90;79.40
38514;DHT22;24282;48.400;10.808;2024-03-29T04:10:12;3.90;79.50
38514;DHT22;24282;48.400;10.808;2024-03-29T04:12:37;3.80;79.80
38514;DHT22;24282;48.400;10.808;2024-03-29T04:15:03;3.80;79.80
38514;DHT22;24282;48.400;10.808;2024-03-29T04:17:30;3.80;79.50
38514;DHT22;24282;48.400;10.808;2024-03-29T04:19:59;3.80;79.50
38514;DHT22;24282;48.400;10.808;2024-03-29T04:22:27;3.80;79.80
38514;DHT22;24282;48.400;10.808;2024-03-29T04:24:53;3.90;79.90
38514;DHT22;24282;48.400;10.808;2024-03-29T04:27:19;3.80;79.90
38514;DHT22;24282;48.400;10.808;2024-03-29T04:29:45;3.90;79.50
38514;DHT22;24282;48.400;10.808;2024-03-29T04:32:10;3.90;79.80
38514;DHT22;24282;48.400;10.808;2024-03-29T04:34:36;3.90;79.70
38514;DHT22;24282;48.400;10.808;2024-03-29T04:37:02;3.90;79.80
38514;DHT22;24282;48.400;10.808;2024-03-29T04:39:28;3.80;80.00
38514;DHT22;24282;48.400;10.808;2024-03-29T04:41:54;3.90;79.30
38514;DHT22;24282;48.400;10.808;2024-03-29T04:44:27;4.00;79.10
38514;DHT22;24282;48.400;10.808;2024-03-29T04:46:53;4.00;79.00
38514;DHT22;24282;48.400;10.808;2024-03-29T04:49:22;4.00;79.60
38514;DHT22;24282;48.400;10.808;2024-03-29T04:51:54;4.00;80.00
38514;DHT22;24282;48.400;10.808;2024-03-29T04:54:20;4.00;80.30
38514;DHT22;24282;48.400;10.808;2024-03-29T04:56:45;4.00;80.40
38514;DHT22;24282;48.400;10.808;2024-03-29T04:59:11;4.10;79.70
38514;DHT22;24282;48.400;10.808;2024-03-29T05:01:37;4.10;79.90
38514;DHT22;24282;48.400;10.808;2024-03-29T05:04:03;4.10;80.10
38514;DHT22;24282;48.400;10.808;2024-03-29T05:06:31;4.20;80.40
38514;DHT22;24282;48.400;10.808;2024-03-29T05:08:57;4.20;79.80
38514;DHT22;24282;48.400;10.808;2024-03-29T05:11:22;4.20;80.00
38514;DHT22;24282;48.400;10.808;2024-03-29T05:13:48;4.30;80.00
38514;DHT22;24282;48.400;10.808;2024-03-29T05:16:14;4.30;79.80
38514;DHT22;24282;48.400;10.808;2024-03-29T05:18:40;4.30;79.80
38514;DHT22;24282;48.400;10.808;2024-03-29T05:21:06;4.30;80.10
38514;DHT22;24282;48.400;10.808;2024-03-29T05:23:32;4.40;80.30
38514;DHT22;24282;48.400;10.808;2024-03-29T05:25:57;4.40;80.30
38514;DHT22;24282;48.400;10.808;2024-03-29T05:28:23;4.40;80.50
38514;DHT22;24282;48.400;10.808;2024-03-29T05:30:49;4.40;80.70
38514;DHT22;24282;48.400;10.808;2024-03-29T05:33:14;4.40;80.90
38514;DHT22;24282;48.400;10.808;2024-03-29T05:35:41;4.40;81.20
38514;DHT22;24282;48.400;10.808;2024-03-29T05:38:06;4.40;81.00
38514;DHT22;24282;48.400;10.808;2024-03-29T05:40:32;4.50;80.90
38514;DHT22;24282;48.400;10.808;2024-03-29T05:42:58;4.50;81.00
38514;DHT22;24282;48.400;10.808;2024-03-29T05:45:31;4.50;80.90
38514;DHT22;24282;48.400;10.808;2024-03-29T05:47:58;4.50;81.10
38514;DHT22;24282;48.400;10.808;2024-03-29T05:50:24;4.60;80.90
38514;DHT22;24282;48.400;10.808;2024-03-29T05:52:53;4.60;81.10
38514;DHT22;24282;48.400;10.808;2024-03-29T05:55:19;4.60;80.80
38514;DHT22;24282;48.400;10.808;2024-03-29T05:57:45;4.70;81.40
38514;DHT22;24282;48.400;10.808;2024-03-29T06:00:12;4.70;81.30
38514;DHT22;24282;48.400;10.808;2024-03-29T06:02:42;4.70;81.30
38514;DHT22;24282;48.400;10.808;2024-03-29T06:05:08;4.80;81.30
38514;DHT22;24282;48.400;10.808;2024-03-29T06:07:35;4.80;81.10
38514;DHT22;24282;48.400;10.808;2024-03-29T06:10:00;4.80;81.00
38514;DHT22;24282;48.400;10.808;2024-03-29T06:12:30;4.80;81.10
38514;DHT22;24282;48.400;10.808;2024-03-29T06:14:56;4.80;81.20
38514;DHT22;24282;48.400;10.808;2024-03-29T06:17:40;4.90;81.40
38514;DHT22;24282;48.400;10.808;2024-03-29T06:20:06;4.90;81.20
38514;DHT22;24282;48.400;10.808;2024-03-29T06:22:32;4.90;81.60
38514;DHT22;24282;48.400;10.808;2024-03-29T06:24:58;4.90;81.80
38514;DHT22;24282;48.400;10.808;2024-03-29T06:27:34;4.90;81.80
38514;DHT22;24282;48.400;10.808;2024-03-29T06:30:00;4.90;81.60
38514;DHT22;24282;48.400;10.808;2024-03-29T06:32:26;4.90;81.60
38514;DHT22;24282;48.400;10.808;2024-03-29T06:34:52;5.00;82.10
38514;DHT22;24282;48.400;10.808;2024-03-29T06:37:18;5.00;82.10
38514;DHT22;24282;48.400;10.808;2024-03-29T06:39:49;5.00;81.90
38514;DHT22;24282;48.400;10.808;2024-03-29T06:42:15;5.00;81.80
38514;DHT22;24282;48.400;10.808;2024-03-29T06:44:41;5.00;81.70
38514;DHT22;24282;48.400;10.808;2024-03-29T06:47:08;5.10;81.60
38514;DHT22;24282;48.400;10.808;2024-03-29T06:49:34;5.20;81.20
38514;DHT22;24282;48.400;10.808;2024-03-29T06:51:59;5.20;81.00
38514;DHT22;24282;48.400;10.808;2024-03-29T06:54:30;5.30;80.30
38514;DHT22;24282;48.400;10.808;2024-03-29T06:56:57;5.30;79.50
38514;DHT22;24282;48.400;10.808;2024-03-29T06:59:23;5.40;77.70
38514;DHT22;24282;48.400;10.808;2024-03-29T07:01:49;5.40;77.20
38514;DHT22;24282;48.400;10.808;2024-03-29T07:04:20;5.50;77.10
38514;DHT22;24282;48.400;10.808;2024-03-29T07:06:46;5.60;77.30
38514;DHT22;24282;48.400;10.808;2024-03-29T07:09:16;5.60;77.50
38514;DHT22;24282;48.400;10.808;2024-03-29T07:11:41;5.70;77.50
38514;DHT22;24282;48.400;10.808;2024-03-29T07:14:07;5.70;77.30
38514;DHT22;24282;48.400;10.808;2024-03-29T07:16:33;5.70;77.20
38514;DHT22;24282;48.400;10.808;2024-03-29T07:18:59;5.80;76.60
38514;DHT22;24282;48.400;10.808;2024-03-29T07:21:26;5.90;76.30
38514;DHT22;24282;48.400;10.808;2024-03-29T07:23:51;6.00;75.90
38514;DHT22;24282;48.400;10.808;2024-03-29T07:26:17;6.10;76.10
38514;DHT22;24282;48.400;10.808;2024-03-29T07:28:43;6.20;76.00
38514;DHT22;24282;48.400;10.808;2024-03-29T07:31:08;6.20;75.80
38514;DHT22;24282;48.400;10.808;2024-03-29T07:33:35;6.30;76.20
38514;DHT22;24282;48.400;10.808;2024-03-29T07:36:01;6.40;76.00
38514;DHT22;24282;48.400;10.808;2024-03-29T07:38:29;6.50;75.90
38514;DHT22;24282;48.400;10.808;2024-03-29T07:40:55;6.50;75.30
38514;DHT22;24282;48.400;10.808;2024-03-29T07:43:25;6.60;75.70
38514;DHT22;24282;48.400;10.808;2024-03-29T07:45:51;6.70;75.30
38514;DHT22;24282;48.400;10.808;2024-03-29T07:48:17;6.70;74.80
38514;DHT22;24282;48.400;10.808;2024-03-29T07:50:45;6.90;74.20
38514;DHT22;24282;48.400;10.808;2024-03-29T07:53:11;6.90;73.60
38514;DHT22;24282;48.400;10.808;2024-03-29T07:55:38;6.90;73.80
38514;DHT22;24282;48.400;10.808;2024-03-29T07:58:05;6.90;73.90
38514;DHT22;24282;48.400;10.808;2024-03-29T08:00:32;6.90;74.20
38514;DHT22;24282;48.400;10.808;2024-03-29T08:02:58;6.90;74.40
38514;DHT22;24282;48.400;10.808;2024-03-29T08:05:24;6.90;74.10
38514;DHT22;24282;48.400;10.808;2024-03-29T08:07:50;6.90;74.40
38514;DHT22;24282;48.400;10.808;2024-03-29T08:10:16;7.00;74.10
38514;DHT22;24282;48.400;10.808;2024-03-29T08:12:42;7.00;74.30
38514;DHT22;24282;48.400;10.808;2024-03-29T08:15:08;7.00;75.00
38514;DHT22;24282;48.400;10.808;2024-03-29T08:17:34;7.10;75.20
38514;DHT22;24282;48.400;10.808;2024-03-29T08:20:00;7.20;75.70
38514;DHT22;24282;48.400;10.808;2024-03-29T08:22:26;7.20;76.00
38514;DHT22;24282;48.400;10.808;2024-03-29T08:24:54;7.20;76.20
38514;DHT22;24282;48.400;10.808;2024-03-29T08:27:20;7.30;76.20
38514;DHT22;24282;48.400;10.808;2024-03-29T08:29:45;7.30;75.30
38514;DHT22;24282;48.400;10.808;2024-03-29T08:32:11;7.30;75.50
38514;DHT22;24282;48.400;10.808;2024-03-29T08:34:38;7.30;75.60
38514;DHT22;24282;48.400;10.808;2024-03-29T08:37:04;7.30;75.80
38514;DHT22;24282;48.400;10.808;2024-03-29T08:39:31;7.40;75.50
38514;DHT22;24282;48.400;10.808;2024-03-29T08:41:57;7.40;75.90
38514;DHT22;24282;48.400;10.808;2024-03-29T08:44:23;7.50;76.50
38514;DHT22;24282;48.400;10.808;2024-03-29T08:46:50;7.60;76.80
38514;DHT22;24282;48.400;10.808;2024-03-29T08:49:16;7.70;76.90
38514;DHT22;24282;48.400;10.808;2024-03-29T08:51:42;7.80;77.30
38514;DHT22;24282;48.400;10.808;2024-03-29T08:54:08;7.90;77.30
38514;DHT22;24282;48.400;10.808;2024-03-29T08:56:33;7.90;76.80
38514;DHT22;24282;48.400;10.808;2024-03-29T08:59:05;8.00;77.20
38514;DHT22;24282;48.400;10.808;2024-03-29T09:01:36;8.10;77.00
38514;DHT22;24282;48.400;10.808;2024-03-29T09:04:03;8.20;76.70
38514;DHT22;24282;48.400;10.808;2024-03-29T09:06:32;8.20;76.70
38514;DHT22;24282;48.400;10.808;2024-03-29T09:08:58;8.30;76.70
38514;DHT22;24282;48.400;10.808;2024-03-29T09:11:24;8.30;76.90
38514;DHT22;24282;48.400;10.808;2024-03-29T09:13:50;8.30;75.70
38514;DHT22;24282;48.400;10.808;2024-03-29T09:16:16;8.40;75.20
38514;DHT22;24282;48.400;10.808;2024-03-29T09:18:41;8.40;74.60
38514;DHT22;24282;48.400;10.808;2024-03-29T09:21:07;8.50;74.30
38514;DHT22;24282;48.400;10.808;2024-03-29T09:23:34;8.60;75.30
38514;DHT22;24282;48.400;10.808;2024-03-29T09:26:00;8.60;74.90
38514;DHT22;24282;48.400;10.808;2024-03-29T09:28:29;8.70;74.80
38514;DHT22;24282;48.400;10.808;2024-03-29T09:31:00;8.70;75.40
38514;DHT22;24282;48.400;10.808;2024-03-29T09:33:26;8.80;75.10
38514;DHT22;24282;48.400;10.808;2024-03-29T09:35:52;8.90;74.50
38514;DHT22;24282;48.400;10.808;2024-03-29T09:38:19;8.90;75.10
38514;DHT22;24282;48.400;10.808;2024-03-29T09:40:45;8.90;75.00
38514;DHT22;24282;48.400;10.808;2024-03-29T09:43:13;8.90;74.60
38514;DHT22;24282;48.400;10.808;2024-03-29T09:45:40;8.90;74.60
38514;DHT22;24282;48.400;10.808;2024-03-29T09:48:08;9.00;74.20
38514;DHT22;24282;48.400;10.808;2024-03-29T09:50:37;9.10;73.30
38514;DHT22;24282;48.400;10.808;2024-03-29T09:53:06;9.20;73.40
38514;DHT22;24282;48.400;10.808;2024-03-29T09:55:35;9.40;73.90
38514;DHT22;24282;48.400;10.808;2024-03-29T09:58:02;9.60;74.00
38514;DHT22;24282;48.400;10.808;2024-03-29T10:00:28;9.80;73.70
38514;DHT22;24282;48.400;10.808;2024-03-29T10:02:56;9.90;74.00
38514;DHT22;24282;48.400;10.808;2024-03-29T10:05:29;10.00;73.20
38514;DHT22;24282;48.400;10.808;2024-03-29T10:07:55;10.10;73.00
38514;DHT22;24282;48.400;10.808;2024-03-29T10:10:22;10.30;72.90
38514;DHT22;24282;48.400;10.808;2024-03-29T10:12:47;10.40;72.60
38514;DHT22;24282;48.400;10.808;2024-03-29T10:15:13;10.50;71.30
38514;DHT22;24282;48.400;10.808;2024-03-29T10:17:50;10.60;71.20
38514;DHT22;24282;48.400;10.808;2024-03-29T10:20:17;10.70;70.00
38514;DHT22;24282;48.400;10.808;2024-03-29T10:22:44;10.80;70.60
38514;DHT22;24282;48.400;10.808;2024-03-29T10:25:18;10.90;70.50
38514;DHT22;24282;48.400;10.808;2024-03-29T10:27:45;11.10;70.10
38514;DHT22;24282;48.400;10.808;2024-03-29T10:30:11;11.20;69.90
38514;DHT22;24282;48.400;10.808;2024-03-29T10:32:42;11.40;69.80
38514;DHT22;24282;48.400;10.808;2024-03-29T10:35:09;11.40;68.90
38514;DHT22;24282;48.400;10.808;2024-03-29T10:37:36;11.50;69.20
38514;DHT22;24282;48.400;10.808;2024-03-29T10:40:11;11.60;69.90
38514;DHT22;24282;48.400;10.808;2024-03-29T10:42:41;11.60;69.30
38514;DHT22;24282;48.400;10.808;2024-03-29T10:45:08;11.60;69.70
38514;DHT22;24282;48.400;10.808;2024-03-29T10:47:34;11.70;69.20
38514;DHT22;24282;48.400;10.808;2024-03-29T10:50:00;11.70;69.60
38514;DHT22;24282;48.400;10.808;2024-03-29T10:52:26;11.70;70.10
38514;DHT22;24282;48.400;10.808;2024-03-29T10:54:53;11.70;69.90
38514;DHT22;24282;48.400;10.808;2024-03-29T10:57:24;11.60;70.20
38514;DHT22;24282;48.400;10.808;2024-03-29T11:02:37;11.40;70.50
38514;DHT22;24282;48.400;10.808;2024-03-29T11:05:08;11.40;70.60
38514;DHT22;24282;48.400;10.808;2024-03-29T11:07:39;11.30;71.20
38514;DHT22;24282;48.400;10.808;2024-03-29T11:10:06;11.30;71.90
38514;DHT22;24282;48.400;10.808;2024-03-29T11:12:41;11.30;72.50
38514;DHT22;24282;48.400;10.808;2024-03-29T11:15:17;11.30;73.30
38514;DHT22;24282;48.400;10.808;2024-03-29T11:17:45;11.30;72.80
38514;DHT22;24282;48.400;10.808;2024-03-29T11:20:11;11.40;72.00
38514;DHT22;24282;48.400;10.808;2024-03-29T11:22:40;11.40;72.10
38514;DHT22;24282;48.400;10.808;2024-03-29T11:25:06;11.40;71.80
38514;DHT22;24282;48.400;10.808;2024-03-29T11:27:33;11.50;71.70
38514;DHT22;24282;48.400;10.808;2024-03-29T11:30:02;11.50;71.90
38514;DHT22;24282;48.400;10.808;2024-03-29T11:32:35;11.50;71.80
38514;DHT22;24282;48.400;10.808;2024-03-29T11:35:02;11.50;72.20
38514;DHT22;24282;48.400;10.808;2024-03-29T11:37:31;11.50;72.80
38514;DHT22;24282;48.400;10.808;2024-03-29T11:40:00;11.60;73.10
38514;DHT22;24282;48.400;10.808;2024-03-29T11:42:44;11.60;73.20
38514;DHT22;24282;48.400;10.808;2024-03-29T11:45:11;11.60;73.30
38514;DHT22;24282;48.400;10.808;2024-03-29T11:47:39;11.70;74.00
38514;DHT22;24282;48.400;10.808;2024-03-29T11:50:08;11.80;73.20
38514;DHT22;24282;48.400;10.808;2024-03-29T11:52:34;11.90;73.60
38514;DHT22;24282;48.400;10.808;2024-03-29T11:55:00;11.90;73.40
38514;DHT22;24282;48.400;10.808;2024-03-29T11:57:26;12.10;73.70
38514;DHT22;24282;48.400;10.808;2024-03-29T11:59:51;12.20;73.50
38514;DHT22;24282;48.400;10.808;2024-03-29T12:02:18;12.20;73.40
38514;DHT22;24282;48.400;10.808;2024-03-29T12:04:44;12.40;74.00
38514;DHT22;24282;48.400;10.808;2024-03-29T12:07:10;12.50;73.00
38514;DHT22;24282;48.400;10.808;2024-03-29T12:09:36;12.60;72.40
38514;DHT22;24282;48.400;10.808;2024-03-29T12:12:05;12.80;71.80
38514;DHT22;24282;48.400;10.808;2024-03-29T12:14:35;12.90;71.40
38514;DHT22;24282;48.400;10.808;2024-03-29T12:19:40;12.90;68.80
38514;DHT22;24282;48.400;10.808;2024-03-29T12:22:08;13.00;69.10
38514;DHT22;24282;48.400;10.808;2024-03-29T12:24:35;13.00;68.60
38514;DHT22;24282;48.400;10.808;2024-03-29T12:27:01;13.00;69.40
38514;DHT22;24282;48.400;10.808;2024-03-29T12:29:27;13.10;69.50
38514;DHT22;24282;48.400;10.808;2024-03-29T12:31:59;13.10;69.80
38514;DHT22;24282;48.400;10.808;2024-03-29T12:34:25;13.20;70.30
38514;DHT22;24282;48.400;10.808;2024-03-29T12:36:51;13.30;70.30
38514;DHT22;24282;48.400;10.808;2024-03-29T12:39:17;13.30;70.00
38514;DHT22;24282;48.400;10.808;2024-03-29T12:41:43;13.40;69.70
38514;DHT22;24282;48.400;10.808;2024-03-29T12:44:10;13.50;70.20
38514;DHT22;24282;48.400;10.808;2024-03-29T12:46:36;13.60;69.20
38514;DHT22;24282;48.400;10.808;2024-03-29T12:49:03;13.80;69.00
38514;DHT22;24282;48.400;10.808;2024-03-29T12:51:29;13.80;68.90
38514;DHT22;24282;48.400;10.808;2024-03-29T12:53:55;13.90;69.40
38514;DHT22;24282;48.400;10.808;2024-03-29T12:56:26;14.00;69.40
38514;DHT22;24282;48.400;10.808;2024-03-29T12:58:51;14.20;69.00
38514;DHT22;24282;48.400;10.808;2024-03-29T13:01:17;14.30;68.30
38514;DHT22;24282;48.400;10.808;2024-03-29T13:03:43;14.60;67.60
38514;DHT22;24282;48.400;10.808;2024-03-29T13:06:09;14.90;67.60
38514;DHT22;24282;48.400;10.808;2024-03-29T13:08:35;15.10;67.20
38514;DHT22;24282;48.400;10.808;2024-03-29T13:11:02;15.30;66.90
38514;DHT22;24282;48.400;10.808;2024-03-29T13:13:28;15.50;64.70
38514;DHT22;24282;48.400;10.808;2024-03-29T13:15:53;15.70;64.90
38514;DHT22;24282;48.400;10.808;2024-03-29T13:18:19;15.90;64.90
38514;DHT22;24282;48.400;10.808;2024-03-29T13:20:45;16.00;65.00
38514;DHT22;24282;48.400;10.808;2024-03-29T13:23:11;16.10;65.30
38514;DHT22;24282;48.400;10.808;2024-03-29T13:25:37;16.20;65.00
38514;DHT22;24282;48.400;10.808;2024-03-29T13:28:04;16.20;64.40
38514;DHT22;24282;48.400;10.808;2024-03-29T13:30:32;16.10;64.10
38514;DHT22;24282;48.400;10.808;2024-03-29T13:32:58;16.10;64.40
38514;DHT22;24282;48.400;10.808;2024-03-29T13:35:24;16.10;63.90
38514;DHT22;24282;48.400;10.808;2024-03-29T13:37:51;16.10;63.70
38514;DHT22;24282;48.400;10.808;2024-03-29T13:40:21;16.10;63.00
38514;DHT22;24282;48.400;10.808;2024-03-29T13:42:47;16.10;62.90
38514;DHT22;24282;48.400;10.808;2024-03-29T13:45:14;16.20;63.40
38514;DHT22;24282;48.400;10.808;2024-03-29T13:47:41;16.30;63.10
38514;DHT22;24282;48.400;10.808;2024-03-29T13:50:09;16.30;63.40
38514;DHT22;24282;48.400;10.808;2024-03-29T13:52:35;16.20;63.30
38514;DHT22;24282;48.400;10.808;2024-03-29T13:55:02;16.20;62.80
38514;DHT22;24282;48.400;10.808;2024-03-29T13:57:29;16.20;63.50
38514;DHT22;24282;48.400;10.808;2024-03-29T13:59:56;16.10;63.50
38514;DHT22;24282;48.400;10.808;2024-03-29T14:02:22;16.10;63.40
38514;DHT22;24282;48.400;10.808;2024-03-29T14:04:49;16.30;63.80
38514;DHT22;24282;48.400;10.808;2024-03-29T14:07:15;16.40;63.80
38514;DHT22;24282;48.400;10.808;2024-03-29T14:09:44;16.40;63.90
38514;DHT22;24282;48.400;10.808;2024-03-29T14:12:10;16.60;63.50
38514;DHT22;24282;48.400;10.808;2024-03-29T14:14:36;16.70;63.60
38514;DHT22;24282;48.400;10.808;2024-03-29T14:17:02;16.80;63.00
38514;DHT22;24282;48.400;10.808;2024-03-29T14:19:33;16.90;62.70
38514;DHT22;24282;48.400;10.808;2024-03-29T14:22:00;17.10;62.10
38514;DHT22;24282;48.400;10.808;2024-03-29T14:24:26;17.20;61.80
38514;DHT22;24282;48.400;10.808;2024-03-29T14:26:52;17.30;61.80
38514;DHT22;24282;48.400;10.808;2024-03-29T14:29:18;17.40;61.60
38514;DHT22;24282;48.400;10.808;2024-03-29T14:31:49;17.30;61.30
38514;DHT22;24282;48.400;10.808;2024-03-29T14:34:16;17.30;61.80
38514;DHT22;24282;48.400;10.808;2024-03-29T14:36:43;17.30;61.80
38514;DHT22;24282;48.400;10.808;2024-03-29T14:39:09;17.30;61.90
38514;DHT22;24282;48.400;10.808;2024-03-29T14:41:38;17.10;62.10
38514;DHT22;24282;48.400;10.808;2024-03-29T14:44:06;17.00;62.30
38514;DHT22;24282;48.400;10.808;2024-03-29T14:46:33;16.90;62.40
38514;DHT22;24282;48.400;10.808;2024-03-29T14:48:59;16.90;63.10
38514;DHT22;24282;48.400;10.808;2024-03-29T14:51:26;16.80;63.50
38514;DHT22;24282;48.400;10.808;2024-03-29T14:53:53;16.60;63.90
38514;DHT22;24282;48.400;10.808;2024-03-29T14:56:19;16.50;64.20
38514;DHT22;24282;48.400;10.808;2024-03-29T14:58:45;16.50;64.60
38514;DHT22;24282;48.400;10.808;2024-03-29T15:01:12;16.40;64.20
38514;DHT22;24282;48.400;10.808;2024-03-29T15:03:38;16.30;64.40
38514;DHT22;24282;48.400;10.808;2024-03-29T15:06:04;16.30;64.90
38514;DHT22;24282;48.400;10.808;2024-03-29T15:08:30;16.20;65.20
38514;DHT22;24282;48.400;10.808;2024-03-29T15:11:00;16.30;64.70
38514;DHT22;24282;48.400;10.808;2024-03-29T15:13:26;16.40;64.00
38514;DHT22;24282;48.400;10.808;2024-03-29T15:15:56;16.40;63.90
38514;DHT22;24282;48.400;10.808;2024-03-29T15:18:22;16.50;63.90
38514;DHT22;24282;48.400;10.808;2024-03-29T15:20:59;16.60;64.00
38514;DHT22;24282;48.400;10.808;2024-03-29T15:23:26;16.60;63.90
38514;DHT22;24282;48.400;10.808;2024-03-29T15:25:53;16.50;64.50
38514;DHT22;24282;48.400;10.808;2024-03-29T15:28:24;16.40;64.50